Rechercher aéroport 
image banner adimage banner adimage banner ad
image banner ad

17PS - Mountain Crest

Situé à Tidioute, United States

ICAO - 17PS, IATA -

Données fournies par Airmate  

Information générale

Coordonnées: N41°34'45" W79°26'30"
Élévation : 1641 feet MSL.
 
Voir autres Aéroports à Pennsylvania

Données opérationnelles

Special qualification required
Heure actuelle UTC:
Heure actuelle locale:
Météo à : KFKL - Venango Rgnl ( 41 km )
METAR: KFKL 291456Z AUTO 23009G20KT 3SM TSRA BR FEW015 BKN023 OVC060 21/20 A2989 RMK AO2 LTG DSNT N AND NE AND SW TSB40RAB46 SLP116 P0014 60016 T02110200 58021
TAF: KFKL 291441Z 2915/3012 21008KT P6SM -SHRA OVC035 TEMPO 2915/2916 22010G25KT 3SM TSRA OVC025CB FM292000 25008G17KT P6SM VCTS BKN035CB FM300000 29005KT P6SM BKN035 FM300600 32005KT P6SM BKN015
Voir NOTAMs / SUP AIP / TFR affectant cet aéroport [VIEW]
Fréquences de communication: [VIEW]

Pistes:

Identifiant RWYQFULongueur (ft)Largeur (ft)SurfaceLDA (ft)
012170100GRASS
192170100GRASS

Coordonnées de l'aéroport

Adresse: Tidioute United States

Vue satellite de 17PS